Bei Facebook empfehlenBei Twitter postenGoogle plusPinterest

Das Wetter im Erzgebirge am 16.10.2016

Wetter und Klima am 16.10.2016 Holzhau im Erzgebirge (630m ü.NN)
Letzte gemessene Temperatur und Uhrzeit der Messung23:45:00 Uhr7.20 °C
Temperatur (Maximum / Höchstwert) und Uhrzeit der Messung16:30:00 Uhr17.60 °C
Temperatur (Minimum / Tiefstwert) und Uhrzeit der Messung22:30:005.90 °C
Errechneter Absolutwert der Temperaturschwankungen zwischen Tmin und Tmax des Tages11.70 K
Errechnete Tagesmitteltemperatur10.15833 °C
Gesamt - Niederschlag des Tages (in flüssiger Form)0.00 Liter / m²
Luftdruck (Maximum / Höchstwert) und Zeitpunkt der Messung23:15:00 Uhr1021.10 hPa
Luftdruck (Minimum / Tiefstwert) und Zeitpunkt der Messung00:00:00 Uhr1015.60 hPa
Errechneter Absolutwert der Luftdruckschwankungen des Tages5.50 hPa
Höchste gemessene Windgeschwindigkeit und Uhrzeit der Messung23:45:00 Uhr0.00 km/h
Errechnete Windhäufigkeit in Relation zu den Messwerten des Tages0.00000 %
Niedrigste Windkühle (Windchill) und Zeitpunkt der Messung22:30:00 Uhr5.90 °C
Taupunkt (Maximum / Höchstwert) und Uhrzeit der Messung12:15:00 Uhr13.20 °C
Taupunkt (Minimum / Tiefstwert) und Uhrzeit der Messung22:30:004.50 °C
Anzahl der automatisch eingelesenen Messwerte 96

Detaillierte Wetter- und Klima- Messwerte für den 16.10.2016 in Holzhau im Erzgebirge (630m ü.NN)
ZeitTemperaturLuftdruckRel. LuftfeuchteWindWindrichtungWindchillTaupunktNiederschlag l/m²
23:45:007.20 °C1021.00 hPa93.00 %6.10 °C 
23:30:007.10 °C1021.00 hPa92.00 %5.90 °C 
23:15:006.80 °C1021.10 hPa92.00 %5.60 °C 
23:00:006.60 °C1021.00 hPa92.00 %5.40 °C 
22:45:006.30 °C1021.00 hPa91.00 %4.90 °C 
22:30:005.90 °C1020.90 hPa91.00 %4.50 °C 
22:15:005.90 °C1020.90 hPa91.00 %4.50 °C 
22:00:005.90 °C1020.80 hPa91.00 %4.50 °C 
21:45:006.20 °C1020.70 hPa90.00 %4.70 °C 
21:30:006.50 °C1020.80 hPa90.00 %5.00 °C 
21:15:006.30 °C1020.60 hPa89.00 %4.60 °C 
21:00:006.50 °C1020.60 hPa89.00 %4.80 °C 
20:45:006.80 °C1020.40 hPa89.00 %5.10 °C 
20:30:006.90 °C1020.50 hPa88.00 %5.10 °C 
20:15:006.90 °C1020.40 hPa87.00 %4.90 °C 
20:00:006.90 °C1020.30 hPa87.00 %4.90 °C 
19:45:007.20 °C1020.20 hPa86.00 %5.00 °C 
19:30:007.50 °C1020.20 hPa85.00 %5.10 °C 
19:15:007.90 °C1020.20 hPa84.00 %5.40 °C 
19:00:008.40 °C1020.30 hPa83.00 %5.70 °C 
18:45:008.90 °C1020.20 hPa81.00 %5.80 °C 
18:30:009.80 °C1019.90 hPa80.00 %6.50 °C 
18:15:0010.90 °C1020.00 hPa79.00 %7.40 °C 
18:00:0011.80 °C1020.10 hPa77.00 %7.90 °C 
17:45:0012.70 °C1020.10 hPa75.00 %8.40 °C 
17:30:0014.10 °C1020.10 hPa71.00 %8.90 °C 
17:15:0015.10 °C1020.20 hPa68.00 %9.20 °C 
17:00:0016.10 °C1020.20 hPa66.00 %9.80 °C 
16:45:0017.30 °C1020.10 hPa64.00 %10.40 °C 
16:30:0017.60 °C1019.80 hPa64.00 %10.70 °C 
16:15:0017.50 °C1020.00 hPa64.00 %10.60 °C 
16:00:0017.40 °C1020.10 hPa65.00 %10.80 °C 
15:45:0017.30 °C1019.90 hPa66.00 %10.90 °C 
15:30:0017.40 °C1019.90 hPa68.00 %11.40 °C 
15:15:0016.90 °C1019.80 hPa70.00 %11.40 °C 
15:00:0016.40 °C1019.60 hPa72.00 %11.30 °C 
14:45:0015.80 °C1019.70 hPa76.00 %11.60 °C 
14:30:0014.90 °C1019.70 hPa75.00 %10.50 °C 
14:15:0015.20 °C1019.80 hPa74.00 %10.60 °C 
14:00:0015.90 °C1019.90 hPa74.00 %11.30 °C 
13:45:0016.60 °C1019.80 hPa75.00 %12.20 °C 
13:30:0016.40 °C1019.60 hPa80.00 %12.90 °C 
13:15:0015.60 °C1019.70 hPa84.00 %12.90 °C 
13:00:0014.40 °C1019.70 hPa86.00 %12.10 °C 
12:45:0014.20 °C1019.50 hPa87.00 %12.10 °C 
12:30:0014.60 °C1019.70 hPa89.00 %12.80 °C 
12:15:0014.50 °C1019.70 hPa92.00 %13.20 °C 
12:00:0014.10 °C1019.60 hPa93.00 %13.00 °C 
11:45:0013.90 °C1019.60 hPa94.00 %13.00 °C 
11:30:0013.40 °C1019.50 hPa95.00 %12.60 °C 
11:15:0013.00 °C1019.50 hPa95.00 %12.20 °C 
11:00:0012.40 °C1019.40 hPa95.00 %11.60 °C 
10:45:0011.90 °C1019.40 hPa96.00 %11.30 °C 
10:30:0011.60 °C1019.20 hPa96.00 %11.00 °C 
10:15:0010.90 °C1019.30 hPa95.00 %10.10 °C 
10:00:0010.40 °C1019.00 hPa96.00 %9.80 °C 
09:45:009.90 °C1018.80 hPa95.00 %9.10 °C 
09:30:009.50 °C1018.70 hPa96.00 %8.90 °C 
09:15:009.10 °C1018.50 hPa96.00 %8.50 °C 
09:00:008.80 °C1018.40 hPa95.00 %8.00 °C 
08:45:008.40 °C1018.10 hPa95.00 %7.60 °C 
08:30:008.30 °C1018.10 hPa95.00 %7.50 °C 
08:15:008.10 °C1018.00 hPa95.00 %7.30 °C 
08:00:007.90 °C1017.90 hPa95.00 %7.10 °C 
07:45:007.90 °C1017.90 hPa95.00 %7.10 °C 
07:30:007.90 °C1017.70 hPa95.00 %7.10 °C 
07:15:007.90 °C1017.50 hPa95.00 %7.10 °C 
07:00:007.90 °C1017.50 hPa95.00 %7.10 °C 
06:45:007.90 °C1017.40 hPa95.00 %7.10 °C 
06:30:007.90 °C1017.30 hPa95.00 %7.10 °C 
06:15:007.90 °C1017.20 hPa95.00 %7.10 °C 
06:00:007.90 °C1017.10 hPa95.00 %7.10 °C 
05:45:007.90 °C1017.00 hPa95.00 %7.10 °C 
05:30:008.10 °C1017.00 hPa95.00 %7.30 °C 
05:15:008.10 °C1016.90 hPa95.00 %7.30 °C 
05:00:007.90 °C1016.80 hPa95.00 %7.10 °C 
04:45:007.90 °C1016.90 hPa94.00 %7.00 °C 
04:30:007.90 °C1017.20 hPa94.00 %7.00 °C 
04:15:007.90 °C1016.90 hPa94.00 %7.00 °C 
04:00:007.90 °C1017.00 hPa94.00 %7.00 °C 
03:45:007.90 °C1017.10 hPa94.00 %7.00 °C 
03:30:007.90 °C1017.00 hPa94.00 %7.00 °C 
03:15:007.90 °C1017.00 hPa94.00 %7.00 °C 
03:00:007.90 °C1017.00 hPa94.00 %7.00 °C 
02:45:007.90 °C1017.00 hPa94.00 %7.00 °C 
02:30:007.90 °C1016.80 hPa94.00 %7.00 °C 
02:15:007.80 °C1016.70 hPa94.00 %6.90 °C 
02:00:007.60 °C1016.50 hPa94.00 %6.70 °C 
01:45:007.60 °C1016.50 hPa93.00 %6.50 °C 
01:30:007.40 °C1016.40 hPa93.00 %6.30 °C 
01:15:007.30 °C1016.30 hPa93.00 %6.20 °C 
01:00:007.30 °C1016.10 hPa93.00 %6.20 °C 
00:45:007.30 °C1016.00 hPa92.00 %6.10 °C 
00:30:007.90 °C1016.00 hPa92.00 %6.70 °C 
00:15:008.80 °C1015.80 hPa92.00 %7.60 °C 
00:00:009.40 °C1015.60 hPa92.00 %8.20 °C 

Permanenter Link zu dieser Seite: Wetter im Erzgebirge am 16.10.2016
Performance-Info: Die Erstellung der Seite / Statistik(en) / Tabelle(n) erforderte 5 Datenbankserver-Abfrage(n) und dauerte 101 Millisekunden. (Dieser Messwert ist von der Gesamt-Auslastung des Servers abhängig.)
Erzgebirge - Wetter | Erzgebirge - Wetter (Mobilgeräte) | Komplette Klimadatenbank